Fort Worth, TX

5:30 AM CST on December 29, 2014 (GMT -0600)
Fort Worth Meacham International | Change Station
CLOSE
Current Station
Airport
Location: Fort Worth,
Elevation: 705 ft
Nearby Weather Stations
Active Advisory: Special Statement

Elev 705 ft 32.82 °N, 97.36 °W | Updated 37 minutes ago

Clear
Clear
33 °F
Feels Like 28 °F
N
6
Wind Variable Wind from SE

Today
High -- | Low -- °F
--% Chance of Precip.
Yesterday
High -- | Low -- °F
Precip. -- in
7:30 AM 5:32 PM
First Quarter, 58% visible
Pressure 30.09 in
Visibility 10.0 miles
Clouds Clear
Windchill 28 °F
Dew Point 25 °F
Humidity 72%
Rainfall 0.00 in
Snow Depth Not available.
UV 0 out of 12
Pollen 9.50 out of 12
Air Quality Not available.
Flu Activity Not available.
METAR KFTW 291053Z 13005KT 10SM CLR 01/M04 A3009 RMK AO2 SLP190 T00061039

More Conditions Fewer Conditions

Pressure 30.09 in
Visibility 10.0 miles
Clouds Clear
Windchill 28 °F
Dew Point 25 °F
Humidity 72%
Rainfall 0.00 in
Snow Depth Not available.
UV 0 out of 12
Pollen 9.50 out of 12
Air Quality Not available.
Flu Activity Not available.
METAR KFTW 291053Z 13005KT 10SM CLR 01/M04 A3009 RMK AO2 SLP190 T00061039

More Conditions Fewer Conditions

10-Day Weather Forecast

Almanac

Astronomy

Dec. 29, 2014 Rise Set
Actual Time
Civil Twilight
Nautical Twilight
Astronomical Twilight
Moon
Length of Visible Light
Length of Day
Tomorrow will be .
, % of the Moon is Illuminated

Today's Extremes

State Highs State Lows

Community

WunderPhotos

Upload Photos

1,781,570 photos uploaded!

WunderBlogs® & News

Nearby

Air Quality

  Air Quality AQ Index Pollutant
Not available.

Snow Depth

Station Depth Elevation

Earthquake Activity

City Distance Mag. Time & Date
Minimum magnitude displayed is 2.5.

Coastal Water Temperatures

Place Temperature

Nearby Weather Stations